createdAt,value
2023-01-19T00:00:47.569Z,98230.72
2023-01-19T00:03:18.449Z,98225.72
2023-01-19T00:05:46.219Z,98225.50
2023-01-19T00:08:16.729Z,98215.69
2023-01-19T00:10:49.197Z,98222.47
2023-01-19T00:13:16.649Z,98227.69
2023-01-19T00:15:44.575Z,98227.78
2023-01-19T00:18:12.024Z,98227.94
2023-01-19T00:20:40.607Z,98226.03
2023-01-19T00:23:08.826Z,98221.50
2023-01-19T00:25:42.212Z,98228.50
2023-01-19T00:28:11.414Z,98222.41
2023-01-19T00:30:39.648Z,98220.94
2023-01-19T00:33:07.074Z,98219.44
2023-01-19T00:35:35.763Z,98214.88
2023-01-19T00:38:03.683Z,98211.38
2023-01-19T00:40:31.099Z,98217.16
2023-01-19T00:43:00.169Z,98217.66
2023-01-19T00:45:27.770Z,98218.13
2023-01-19T00:47:57.146Z,98221.66
2023-01-19T00:50:29.381Z,98208.75
2023-01-19T00:52:57.733Z,98202.53
2023-01-19T00:55:25.625Z,98201.19
2023-01-19T00:57:52.964Z,98209.84
2023-01-19T01:00:21.415Z,98210.34
2023-01-19T01:02:51.479Z,98212.69
2023-01-19T01:05:19.300Z,98215.06
2023-01-19T01:07:48.286Z,98206.44
2023-01-19T01:10:23.332Z,98220.75
2023-01-19T01:12:57.666Z,98218.78
2023-01-19T01:15:28.091Z,98224.00
2023-01-19T01:17:55.911Z,98224.81
2023-01-19T01:20:27.659Z,98222.28
2023-01-19T01:22:57.228Z,98225.56
2023-01-19T01:25:26.646Z,98235.19
2023-01-19T01:27:54.783Z,98223.13
2023-01-19T01:30:22.870Z,98223.97
2023-01-19T01:32:50.286Z,98231.97
2023-01-19T01:35:17.785Z,98232.72
2023-01-19T01:37:45.522Z,98239.03
2023-01-19T01:40:14.936Z,98236.53
2023-01-19T01:42:42.891Z,98233.59
2023-01-19T01:45:33.389Z,98239.81
2023-01-19T01:48:28.505Z,98246.06
2023-01-19T01:51:25.290Z,98251.53
2023-01-19T01:54:02.684Z,98254.91
2023-01-19T01:56:43.768Z,98253.88
2023-01-19T01:59:34.895Z,98265.13
2023-01-19T02:02:24.867Z,98267.81
2023-01-19T02:04:58.421Z,98279.00
2023-01-19T02:08:31.647Z,98282.50
2023-01-19T02:11:18.277Z,98288.28
2023-01-19T02:13:47.011Z,98270.19
2023-01-19T02:16:15.725Z,98244.56
2023-01-19T02:18:43.297Z,98210.19
2023-01-19T02:21:23.828Z,98211.56
2023-01-19T02:23:53.813Z,98218.44
2023-01-19T02:26:27.260Z,98237.41
2023-01-19T02:28:57.810Z,98247.31
2023-01-19T02:31:26.471Z,98272.38
2023-01-19T02:33:54.831Z,98274.19
2023-01-19T02:36:29.296Z,98275.75
2023-01-19T02:38:57.495Z,98246.47
2023-01-19T02:41:28.918Z,98237.72
2023-01-19T02:43:57.458Z,98240.97
2023-01-19T02:46:25.684Z,98240.81
2023-01-19T02:48:53.016Z,98227.88
2023-01-19T02:51:21.447Z,98226.16
2023-01-19T02:54:23.866Z,98233.28
2023-01-19T02:57:09.848Z,98247.69
2023-01-19T03:00:02.369Z,98242.31
2023-01-19T03:02:46.383Z,98246.22
2023-01-19T03:05:58.582Z,98245.22
2023-01-19T03:08:48.539Z,98250.38
2023-01-19T03:11:16.301Z,98252.72
2023-01-19T03:14:04.132Z,98261.13
2023-01-19T03:16:44.009Z,98268.63
2023-01-19T03:19:19.712Z,98271.06
2023-01-19T03:22:05.015Z,98285.13
2023-01-19T03:24:37.068Z,98281.84
2023-01-19T03:27:26.540Z,98278.53
2023-01-19T03:30:13.153Z,98239.34
2023-01-19T03:33:08.024Z,98223.16
2023-01-19T03:35:37.537Z,98209.19
2023-01-19T03:38:15.019Z,98216.19
2023-01-19T03:40:42.760Z,98208.19
2023-01-19T03:43:10.604Z,98198.56
2023-01-19T03:45:38.720Z,98194.81
2023-01-19T03:48:06.414Z,98194.59
2023-01-19T03:50:34.022Z,98194.66
2023-01-19T03:53:05.828Z,98199.75
2023-01-19T03:55:34.440Z,98188.31
2023-01-19T03:58:02.415Z,98192.53
2023-01-19T04:00:29.911Z,98210.06
2023-01-19T04:02:57.728Z,98226.06
2023-01-19T04:05:25.339Z,98258.19
2023-01-19T04:07:52.787Z,98271.09
2023-01-19T04:10:21.134Z,98252.28
2023-01-19T04:12:48.734Z,98251.53
2023-01-19T04:15:16.329Z,98268.91
2023-01-19T04:17:44.211Z,98267.12
2023-01-19T04:20:11.746Z,98265.25
2023-01-19T04:22:39.639Z,98262.87
2023-01-19T04:25:08.296Z,98254.59
2023-01-19T04:27:36.398Z,98247.44
2023-01-19T04:30:04.527Z,98233.69
2023-01-19T04:32:32.563Z,98236.44
2023-01-19T04:35:00.207Z,98232.09
2023-01-19T04:37:27.713Z,98237.03
2023-01-19T04:39:55.379Z,98233.41
2023-01-19T04:42:23.011Z,98224.63
2023-01-19T04:44:50.416Z,98220.13
2023-01-19T04:47:18.033Z,98232.09
2023-01-19T04:49:45.669Z,98219.22
2023-01-19T04:52:13.283Z,98230.34
2023-01-19T04:54:40.980Z,98253.66
2023-01-19T04:57:08.386Z,98253.91
2023-01-19T04:59:35.788Z,98249.63
2023-01-19T05:02:03.582Z,98251.50
2023-01-19T05:04:30.965Z,98264.34
2023-01-19T05:06:58.453Z,98264.25
2023-01-19T05:09:27.164Z,98253.81
2023-01-19T05:11:54.557Z,98246.09
2023-01-19T05:14:22.094Z,98242.47
2023-01-19T05:16:49.746Z,98249.50
2023-01-19T05:19:17.194Z,98266.56
2023-01-19T05:21:44.573Z,98274.25
2023-01-19T05:24:12.365Z,98285.47
2023-01-19T05:26:39.784Z,98301.81
2023-01-19T05:29:08.107Z,98310.50
2023-01-19T05:31:37.131Z,98322.38
2023-01-19T05:34:04.967Z,98322.38
2023-01-19T05:36:32.705Z,98321.44
2023-01-19T05:39:00.410Z,98302.50
2023-01-19T05:41:27.742Z,98298.03
2023-01-19T05:43:55.127Z,98297.31
2023-01-19T05:46:22.871Z,98291.91
2023-01-19T05:48:50.613Z,98291.09
2023-01-19T05:51:17.987Z,98284.97
2023-01-19T05:53:45.609Z,98291.16
2023-01-19T05:56:13.066Z,98293.78
2023-01-19T05:58:40.543Z,98284.41
2023-01-19T06:01:10.259Z,98278.47
2023-01-19T06:03:39.516Z,98276.44
2023-01-19T06:06:07.103Z,98281.50
2023-01-19T06:08:34.483Z,98281.59
2023-01-19T06:11:02.193Z,98285.66
2023-01-19T06:13:29.776Z,98275.50
2023-01-19T06:16:01.388Z,98256.78
2023-01-19T06:18:29.434Z,98265.38
2023-01-19T06:20:58.842Z,98261.00
2023-01-19T06:23:29.974Z,98244.78
2023-01-19T06:25:57.764Z,98233.00
2023-01-19T06:28:25.510Z,98226.28
2023-01-19T06:30:54.404Z,98228.03
2023-01-19T06:33:22.949Z,98232.34
2023-01-19T06:35:51.059Z,98251.28
2023-01-19T06:38:19.288Z,98280.53
2023-01-19T06:40:53.839Z,98283.94
2023-01-19T06:43:21.692Z,98290.84
2023-01-19T06:45:50.097Z,98294.22
2023-01-19T06:48:18.054Z,98303.59
2023-01-19T06:50:46.672Z,98293.87
2023-01-19T06:53:16.514Z,98292.19
2023-01-19T06:55:44.223Z,98279.28
2023-01-19T06:58:11.982Z,98270.72
2023-01-19T07:00:39.645Z,98277.53
2023-01-19T07:03:07.850Z,98270.63
2023-01-19T07:05:36.241Z,98269.72
2023-01-19T07:08:04.212Z,98267.00
2023-01-19T07:11:25.420Z,98267.97
2023-01-19T07:13:19.593Z,98263.56
2023-01-19T07:15:46.975Z,98270.41
2023-01-19T07:18:14.387Z,98279.34
2023-01-19T07:20:42.035Z,98288.50
2023-01-19T07:23:09.375Z,98303.91
2023-01-19T07:25:36.816Z,98300.28
2023-01-19T07:28:04.543Z,98308.72
2023-01-19T07:30:31.986Z,98317.25
2023-01-19T07:32:59.780Z,98321.31
2023-01-19T07:35:29.609Z,98323.09
2023-01-19T07:37:56.927Z,98324.63
2023-01-19T07:40:24.308Z,98323.72
2023-01-19T07:42:52.105Z,98327.13
2023-01-19T07:45:20.840Z,98321.06
2023-01-19T07:47:49.712Z,98320.16
2023-01-19T07:50:21.153Z,98321.25
2023-01-19T07:52:53.322Z,98327.38
2023-01-19T07:55:21.495Z,98330.81
2023-01-19T07:57:51.058Z,98331.69
2023-01-19T08:00:21.849Z,98346.56
2023-01-19T08:02:52.490Z,98332.72
2023-01-19T08:05:20.397Z,98341.22
2023-01-19T08:07:48.318Z,98340.41
2023-01-19T08:10:18.668Z,98330.13
2023-01-19T08:12:45.982Z,98325.00
2023-01-19T08:15:13.542Z,98320.12
2023-01-19T08:17:41.138Z,98316.50
2023-01-19T08:20:09.840Z,98309.50
2023-01-19T08:22:37.781Z,98308.78
2023-01-19T08:25:05.786Z,98313.97
2023-01-19T08:27:33.095Z,98316.34
2023-01-19T08:30:00.781Z,98312.31
2023-01-19T08:32:28.425Z,98310.16
2023-01-19T08:34:55.971Z,98315.44
2023-01-19T08:37:24.793Z,98326.84
2023-01-19T08:39:53.940Z,98333.63
2023-01-19T08:42:21.558Z,98342.34
2023-01-19T08:44:57.518Z,98341.63
2023-01-19T08:47:25.713Z,98335.56
2023-01-19T08:49:53.143Z,98340.81
2023-01-19T08:52:20.473Z,98342.81
2023-01-19T08:54:48.073Z,98343.81
2023-01-19T08:57:16.191Z,98332.69
2023-01-19T08:59:43.742Z,98340.53
2023-01-19T09:02:12.137Z,98337.09
2023-01-19T09:04:39.615Z,98334.50
2023-01-19T09:07:07.005Z,98336.25
2023-01-19T09:09:37.796Z,98330.19
2023-01-19T09:12:05.389Z,98332.69
2023-01-19T09:14:32.749Z,98345.69
2023-01-19T09:17:00.441Z,98349.88
2023-01-19T09:19:27.864Z,98361.75
2023-01-19T09:21:55.284Z,98361.66
2023-01-19T09:24:22.939Z,98362.63
2023-01-19T09:26:50.601Z,98349.69
2023-01-19T09:29:17.975Z,98356.94
2023-01-19T09:31:45.709Z,98342.06
2023-01-19T09:34:13.168Z,98342.88
2023-01-19T09:36:40.599Z,98348.91
2023-01-19T09:39:09.293Z,98354.03
2023-01-19T09:41:38.646Z,98348.31
2023-01-19T09:44:06.190Z,98340.53
2023-01-19T09:46:38.978Z,98337.88
2023-01-19T09:49:44.073Z,98334.47
2023-01-19T09:52:15.032Z,98346.63
2023-01-19T09:54:56.616Z,98345.84
2023-01-19T09:57:25.223Z,98353.69
2023-01-19T09:59:57.844Z,98363.03
2023-01-19T10:02:36.490Z,98354.44
2023-01-19T10:05:05.408Z,98362.22
2023-01-19T10:07:32.670Z,98361.41
2023-01-19T10:10:21.129Z,98364.00
2023-01-19T10:13:25.098Z,98370.87
2023-01-19T10:16:02.439Z,98369.22
2023-01-19T10:18:47.904Z,98359.75
2023-01-19T10:21:21.701Z,98362.37
2023-01-19T10:23:55.281Z,98363.19
2023-01-19T10:26:41.185Z,98364.94
2023-01-19T10:29:19.731Z,98370.94
2023-01-19T10:31:47.661Z,98366.62
2023-01-19T10:34:20.947Z,98362.41
2023-01-19T10:36:59.067Z,98367.50
2023-01-19T10:39:26.824Z,98374.41
2023-01-19T10:41:54.240Z,98376.97
2023-01-19T10:44:26.675Z,98381.28
2023-01-19T10:46:56.911Z,98394.16
2023-01-19T10:49:39.145Z,98388.19
2023-01-19T10:52:19.055Z,98387.28
2023-01-19T10:54:48.468Z,98386.41
2023-01-19T10:57:36.568Z,98393.28
2023-01-19T11:00:06.426Z,98395.00
2023-01-19T11:02:34.504Z,98393.28
2023-01-19T11:05:22.904Z,98401.88
2023-01-19T11:07:50.607Z,98392.41
2023-01-19T11:10:20.683Z,98393.31
2023-01-19T11:13:15.682Z,98387.28
2023-01-19T11:15:45.831Z,98390.75
2023-01-19T11:18:39.652Z,98386.41
2023-01-19T11:21:10.034Z,98385.56
2023-01-19T11:23:43.055Z,98377.84
2023-01-19T11:26:25.071Z,98378.69
2023-01-19T11:28:56.003Z,98380.41
2023-01-19T11:31:29.833Z,98385.59
2023-01-19T11:34:25.945Z,98392.47
2023-01-19T11:37:31.049Z,98389.88
2023-01-19T11:39:59.695Z,98386.44
2023-01-19T11:42:30.962Z,98387.28
2023-01-19T11:45:11.024Z,98393.28
2023-01-19T11:47:44.197Z,98385.56
2023-01-19T11:50:35.078Z,98392.44
2023-01-19T11:53:24.797Z,98391.59
2023-01-19T11:55:56.883Z,98395.03
2023-01-19T11:58:25.997Z,98396.75
2023-01-19T12:01:20.867Z,98403.59
2023-01-19T12:03:54.870Z,98407.00
2023-01-19T12:06:26.314Z,98402.72
2023-01-19T12:09:00.199Z,98413.06
2023-01-19T12:11:32.496Z,98418.22
2023-01-19T12:14:00.123Z,98409.59
2023-01-19T12:16:30.134Z,98425.88
2023-01-19T12:19:01.648Z,98424.19
2023-01-19T12:21:29.589Z,98433.66
2023-01-19T12:24:16.395Z,98443.12
2023-01-19T12:26:51.924Z,98445.72
2023-01-19T12:29:22.359Z,98445.69
2023-01-19T12:32:14.889Z,98446.53
2023-01-19T12:34:49.549Z,98446.53
2023-01-19T12:37:37.227Z,98459.44
2023-01-19T12:40:20.284Z,98455.13
2023-01-19T12:42:55.223Z,98456.84
2023-01-19T12:45:25.685Z,98459.38
2023-01-19T12:47:54.543Z,98460.25
2023-01-19T12:50:25.742Z,98470.59
2023-01-19T12:52:57.441Z,98467.13
2023-01-19T12:55:27.849Z,98475.72
2023-01-19T12:58:00.684Z,98469.75
2023-01-19T13:00:35.532Z,98470.59
2023-01-19T13:03:18.425Z,98473.19
2023-01-19T13:05:48.608Z,98488.66
2023-01-19T13:08:18.155Z,98500.69
2023-01-19T13:11:07.796Z,98506.72
2023-01-19T13:13:40.147Z,98508.41
2023-01-19T13:16:19.909Z,98510.97
2023-01-19T13:19:06.225Z,98515.25
2023-01-19T13:21:44.695Z,98525.44
2023-01-19T13:24:17.696Z,98532.31
2023-01-19T13:26:54.899Z,98534.09
2023-01-19T13:29:33.112Z,98540.16
2023-01-19T13:32:24.124Z,98541.03
2023-01-19T13:34:57.151Z,98547.81
2023-01-19T13:37:34.517Z,98552.91
2023-01-19T13:40:02.663Z,98564.12
2023-01-19T13:42:40.857Z,98571.09
2023-01-19T13:45:33.525Z,98571.91
2023-01-19T13:48:06.441Z,98572.81
2023-01-19T13:50:38.527Z,98567.50
2023-01-19T13:53:19.307Z,98585.50
2023-01-19T13:55:48.167Z,98598.44
2023-01-19T13:58:22.177Z,98601.03
2023-01-19T14:00:50.091Z,98591.66
2023-01-19T14:03:23.610Z,98586.53
2023-01-19T14:05:52.480Z,98579.66
2023-01-19T14:08:20.803Z,98580.50
2023-01-19T14:10:54.058Z,98581.34
2023-01-19T14:13:27.119Z,98592.47
2023-01-19T14:15:57.873Z,98589.81
2023-01-19T14:18:30.934Z,98578.66
2023-01-19T14:21:11.257Z,98577.84
2023-01-19T14:23:47.131Z,98592.28
2023-01-19T14:26:43.068Z,98592.44
2023-01-19T14:29:38.116Z,98605.41
2023-01-19T14:32:20.101Z,98606.84
2023-01-19T14:35:03.993Z,98606.16
2023-01-19T14:37:34.037Z,98605.25
2023-01-19T14:40:04.854Z,98597.53
2023-01-19T14:42:35.692Z,98607.72
2023-01-19T14:45:07.175Z,98605.09
2023-01-19T14:47:40.334Z,98614.53
2023-01-19T14:50:21.605Z,98625.47
2023-01-19T14:52:56.833Z,98631.75
2023-01-19T14:55:32.461Z,98647.38
2023-01-19T14:57:59.862Z,98661.06
2023-01-19T15:00:27.615Z,98671.34
2023-01-19T15:02:54.956Z,98691.31
2023-01-19T15:05:23.117Z,98688.63
2023-01-19T15:07:52.189Z,98685.94
2023-01-19T15:10:22.127Z,98670.50
2023-01-19T15:12:53.879Z,98656.62
2023-01-19T15:15:29.714Z,98652.44
2023-01-19T15:17:58.051Z,98661.97
2023-01-19T15:20:25.823Z,98658.50
2023-01-19T15:22:53.199Z,98654.81
2023-01-19T15:25:26.111Z,98669.44
2023-01-19T15:27:57.912Z,98668.78
2023-01-19T15:30:31.232Z,98679.69
2023-01-19T15:32:59.531Z,98682.03
2023-01-19T15:35:26.920Z,98689.03
2023-01-19T15:37:54.427Z,98693.25
2023-01-19T15:40:23.214Z,98695.97
2023-01-19T15:42:50.843Z,98695.09
2023-01-19T15:45:39.579Z,98693.66
2023-01-19T15:48:09.454Z,98695.41
2023-01-19T15:50:39.267Z,98705.69
2023-01-19T15:53:07.596Z,98715.16
2023-01-19T15:55:34.962Z,98716.88
2023-01-19T15:58:02.440Z,98730.50
2023-01-19T16:00:31.994Z,98726.41
2023-01-19T16:03:01.462Z,98716.09
2023-01-19T16:05:41.803Z,98729.03
2023-01-19T16:08:13.438Z,98727.22
2023-01-19T16:10:41.774Z,98745.31
2023-01-19T16:13:11.333Z,98739.22
2023-01-19T16:15:39.666Z,98759.97
2023-01-19T16:18:07.106Z,98760.63
2023-01-19T16:20:34.489Z,98774.25
2023-01-19T16:23:14.579Z,98782.88
2023-01-19T16:25:43.088Z,98781.16
2023-01-19T16:28:10.716Z,98794.84
2023-01-19T16:30:38.178Z,98802.53
2023-01-19T16:33:05.571Z,98812.69
2023-01-19T16:35:33.177Z,98819.03
2023-01-19T16:38:00.561Z,98814.72
2023-01-19T16:40:27.929Z,98825.00
2023-01-19T16:42:55.609Z,98830.78
2023-01-19T16:45:22.999Z,98834.78
2023-01-19T16:47:52.143Z,98839.31
2023-01-19T16:50:19.910Z,98842.25
2023-01-19T16:52:47.360Z,98854.78
2023-01-19T16:55:14.714Z,98863.50
2023-01-19T16:57:42.413Z,98862.72
2023-01-19T17:00:10.960Z,98866.00
2023-01-19T17:02:38.498Z,98874.63
2023-01-19T17:05:06.714Z,98872.19
2023-01-19T17:07:34.068Z,98868.75
2023-01-19T17:10:01.526Z,98865.56
2023-01-19T17:12:31.986Z,98881.13
2023-01-19T17:14:59.595Z,98889.50
2023-01-19T17:17:26.939Z,98892.75
2023-01-19T17:19:54.663Z,98896.31
2023-01-19T17:22:22.042Z,98896.06
2023-01-19T17:24:49.816Z,98897.84
2023-01-19T17:27:17.501Z,98899.34
2023-01-19T17:29:44.928Z,98900.12
2023-01-19T17:32:12.408Z,98903.44
2023-01-19T17:34:40.610Z,98893.13
2023-01-19T17:37:08.011Z,98899.50
2023-01-19T17:39:35.406Z,98895.94
2023-01-19T17:42:03.491Z,98891.78
2023-01-19T17:44:30.946Z,98902.91
2023-01-19T17:46:59.972Z,98908.00
2023-01-19T17:49:27.913Z,98910.22
2023-01-19T17:51:55.779Z,98911.03
2023-01-19T17:54:23.250Z,98912.94
2023-01-19T17:56:50.938Z,98913.78
2023-01-19T17:59:18.386Z,98922.53
2023-01-19T18:01:46.526Z,98931.09
2023-01-19T18:04:14.378Z,98938.25
2023-01-19T18:06:41.769Z,98935.31
2023-01-19T18:09:09.165Z,98938.62
2023-01-19T18:11:36.838Z,98947.16
2023-01-19T18:14:05.421Z,98952.56
2023-01-19T18:16:33.247Z,98954.25
2023-01-19T18:19:01.110Z,98954.25
2023-01-19T18:21:30.425Z,98945.84
2023-01-19T18:24:02.877Z,98948.47
2023-01-19T18:26:32.131Z,98959.66
2023-01-19T18:29:00.192Z,98962.59
2023-01-19T18:31:28.108Z,98960.41
2023-01-19T18:33:55.909Z,98966.47
2023-01-19T18:36:23.497Z,98968.97
2023-01-19T18:38:51.201Z,98968.31
2023-01-19T18:41:20.840Z,98963.22
2023-01-19T18:43:48.795Z,98967.19
2023-01-19T18:46:16.631Z,98959.25
2023-01-19T18:48:44.435Z,98966.97
2023-01-19T18:51:13.967Z,98968.88
2023-01-19T18:53:41.427Z,98960.03
2023-01-19T18:56:12.371Z,98963.53
2023-01-19T18:58:39.851Z,98963.63
2023-01-19T19:01:17.480Z,98970.66
2023-01-19T19:03:45.319Z,98972.03
2023-01-19T19:06:12.855Z,98971.72
2023-01-19T19:08:40.477Z,98973.59
2023-01-19T19:11:08.587Z,98971.97
2023-01-19T19:13:36.563Z,98968.94
2023-01-19T19:16:05.876Z,98976.41
2023-01-19T19:18:37.885Z,98983.62
2023-01-19T19:21:10.493Z,98985.59
2023-01-19T19:23:38.528Z,98996.91
2023-01-19T19:26:08.796Z,98994.78
2023-01-19T19:28:37.424Z,99011.19
2023-01-19T19:31:13.097Z,99010.25
2023-01-19T19:33:41.024Z,99018.75
2023-01-19T19:36:10.190Z,99026.69
2023-01-19T19:38:37.895Z,99026.56
2023-01-19T19:41:09.977Z,99027.91
2023-01-19T19:43:38.424Z,99033.00
2023-01-19T19:46:07.997Z,99033.63
2023-01-19T19:48:38.156Z,99049.97
2023-01-19T19:51:19.496Z,99038.72
2023-01-19T19:53:49.042Z,99043.00
2023-01-19T19:56:21.199Z,99045.88
2023-01-19T19:58:49.371Z,99047.97
2023-01-19T20:01:21.538Z,99045.25
2023-01-19T20:03:49.277Z,99054.56
2023-01-19T20:06:20.744Z,99044.75
2023-01-19T20:08:49.142Z,99047.00
2023-01-19T20:11:19.394Z,99043.16
2023-01-19T20:13:47.728Z,99040.94
2023-01-19T20:16:17.791Z,99033.22
2023-01-19T20:18:48.590Z,99035.69
2023-01-19T20:21:19.233Z,99036.53
2023-01-19T20:23:48.939Z,99039.09
2023-01-19T20:26:19.961Z,99051.78
2023-01-19T20:28:48.063Z,99051.72
2023-01-19T20:31:19.054Z,99048.78
2023-01-19T20:33:47.708Z,99040.81
2023-01-19T20:36:15.691Z,99030.94
2023-01-19T20:38:43.338Z,99027.53
2023-01-19T20:41:12.219Z,99031.94
2023-01-19T20:43:39.896Z,99037.69
2023-01-19T20:46:07.536Z,99030.12
2023-01-19T20:48:35.373Z,99035.47
2023-01-19T20:51:11.469Z,99031.53
2023-01-19T20:53:40.627Z,99030.66
2023-01-19T20:56:13.105Z,99026.88
2023-01-19T20:58:40.960Z,99036.00
2023-01-19T21:01:17.477Z,99037.66
2023-01-19T21:03:45.101Z,99034.97
2023-01-19T21:06:12.895Z,99030.19
2023-01-19T21:08:40.454Z,99028.38
2023-01-19T21:11:08.591Z,99032.78
2023-01-19T21:13:36.771Z,99042.44
2023-01-19T21:16:04.758Z,99041.13
2023-01-19T21:18:32.429Z,99045.56
2023-01-19T21:21:00.140Z,99048.03
2023-01-19T21:23:28.071Z,99048.37
2023-01-19T21:25:58.289Z,99040.28
2023-01-19T21:28:27.052Z,99046.69
2023-01-19T21:30:55.385Z,99050.97
2023-01-19T21:33:23.210Z,99048.53
2023-01-19T21:35:56.188Z,99056.56
2023-01-19T21:38:26.713Z,99071.66
2023-01-19T21:40:55.401Z,99090.81
2023-01-19T21:43:23.486Z,99082.81
2023-01-19T21:45:50.956Z,99092.06
2023-01-19T21:48:19.696Z,99084.66
2023-01-19T21:50:56.569Z,99097.12
2023-01-19T21:53:24.282Z,99109.44
2023-01-19T21:55:51.709Z,99142.81
2023-01-19T21:58:19.049Z,99169.09
2023-01-19T22:00:46.799Z,99194.94
2023-01-19T22:03:14.567Z,99205.53
2023-01-19T22:05:42.077Z,99191.97
2023-01-19T22:08:09.600Z,99173.16
2023-01-19T22:10:37.524Z,99152.56
2023-01-19T22:13:06.600Z,99147.09
2023-01-19T22:15:34.099Z,99131.78
2023-01-19T22:18:01.763Z,99130.44
2023-01-19T22:20:29.159Z,99142.38
2023-01-19T22:22:57.062Z,99139.56
2023-01-19T22:25:27.771Z,99143.12
2023-01-19T22:27:55.819Z,99140.72
2023-01-19T22:30:23.365Z,99140.28
2023-01-19T22:32:53.000Z,99137.44
2023-01-19T22:35:21.250Z,99140.25
2023-01-19T22:37:48.624Z,99139.56
2023-01-19T22:40:16.757Z,99132.53
2023-01-19T22:42:47.996Z,99135.16
2023-01-19T22:45:16.019Z,99144.59
2023-01-19T22:47:43.451Z,99132.31
2023-01-19T22:50:10.868Z,99132.47
2023-01-19T22:52:38.471Z,99118.91
2023-01-19T22:55:06.174Z,99114.75
2023-01-19T22:57:36.431Z,99115.78
2023-01-19T23:00:07.050Z,99134.88
2023-01-19T23:02:34.544Z,99130.97
2023-01-19T23:05:01.897Z,99133.94
2023-01-19T23:07:29.642Z,99118.50
2023-01-19T23:09:56.996Z,99114.94
2023-01-19T23:12:24.420Z,99119.66
2023-01-19T23:14:52.100Z,99105.91
2023-01-19T23:17:19.484Z,99096.47
2023-01-19T23:19:47.000Z,99085.22
2023-01-19T23:22:14.616Z,99082.88
2023-01-19T23:24:41.963Z,99075.44
2023-01-19T23:27:09.609Z,99077.25
2023-01-19T23:29:37.400Z,99083.69
2023-01-19T23:32:04.929Z,99076.09
2023-01-19T23:34:32.250Z,99070.72
2023-01-19T23:36:59.860Z,99069.84
2023-01-19T23:39:27.192Z,99087.37
2023-01-19T23:41:54.572Z,99105.41
2023-01-19T23:44:22.195Z,99117.72
2023-01-19T23:46:49.560Z,99114.00
2023-01-19T23:49:18.063Z,99126.69
2023-01-19T23:51:45.714Z,99129.50
2023-01-19T23:54:13.038Z,99130.38
2023-01-19T23:56:42.592Z,99144.31
2023-01-19T23:59:12.747Z,99131.97
